sensor_id;sensor_type;location;lat;lon;timestamp;temperature;humidity
15083;DHT22;7640;53.116;6.878;2023-09-19T00:00:59;15.80;99.90
15083;DHT22;7640;53.116;6.878;2023-09-19T00:03:30;15.80;99.90
15083;DHT22;7640;53.116;6.878;2023-09-19T00:06:01;15.80;99.90
15083;DHT22;7640;53.116;6.878;2023-09-19T00:08:33;15.80;99.90
15083;DHT22;7640;53.116;6.878;2023-09-19T00:11:02;15.70;99.90
15083;DHT22;7640;53.116;6.878;2023-09-19T00:13:37;15.70;99.90
15083;DHT22;7640;53.116;6.878;2023-09-19T00:16:11;15.60;99.90
15083;DHT22;7640;53.116;6.878;2023-09-19T00:18:46;15.50;99.90
15083;DHT22;7640;53.116;6.878;2023-09-19T00:21:17;15.50;99.90
15083;DHT22;7640;53.116;6.878;2023-09-19T00:23:48;15.50;99.90
15083;DHT22;7640;53.116;6.878;2023-09-19T00:26:19;15.40;99.90
15083;DHT22;7640;53.116;6.878;2023-09-19T00:28:54;15.40;99.90
15083;DHT22;7640;53.116;6.878;2023-09-19T00:31:24;15.30;99.90
15083;DHT22;7640;53.116;6.878;2023-09-19T00:33:56;15.30;99.90
15083;DHT22;7640;53.116;6.878;2023-09-19T00:36:30;15.20;99.90
15083;DHT22;7640;53.116;6.878;2023-09-19T00:39:01;15.20;99.90
15083;DHT22;7640;53.116;6.878;2023-09-19T00:41:34;15.20;99.90
15083;DHT22;7640;53.116;6.878;2023-09-19T00:44:07;15.10;99.90
15083;DHT22;7640;53.116;6.878;2023-09-19T00:46:48;15.10;99.90
15083;DHT22;7640;53.116;6.878;2023-09-19T00:49:26;15.10;99.90
15083;DHT22;7640;53.116;6.878;2023-09-19T00:52:00;15.00;99.90
15083;DHT22;7640;53.116;6.878;2023-09-19T00:54:34;15.00;99.90
15083;DHT22;7640;53.116;6.878;2023-09-19T00:57:05;15.00;99.90
15083;DHT22;7640;53.116;6.878;2023-09-19T00:59:37;15.00;99.90
15083;DHT22;7640;53.116;6.878;2023-09-19T01:02:07;14.90;99.90
15083;DHT22;7640;53.116;6.878;2023-09-19T01:04:39;14.90;99.90
15083;DHT22;7640;53.116;6.878;2023-09-19T01:07:13;14.90;99.90
15083;DHT22;7640;53.116;6.878;2023-09-19T01:09:44;14.80;99.90
15083;DHT22;7640;53.116;6.878;2023-09-19T01:12:22;14.80;99.90
15083;DHT22;7640;53.116;6.878;2023-09-19T01:15:06;14.80;99.90
15083;DHT22;7640;53.116;6.878;2023-09-19T01:17:48;14.80;99.90
15083;DHT22;7640;53.116;6.878;2023-09-19T01:20:39;14.80;99.90
15083;DHT22;7640;53.116;6.878;2023-09-19T01:23:19;14.70;99.90
15083;DHT22;7640;53.116;6.878;2023-09-19T01:26:17;14.70;99.90
15083;DHT22;7640;53.116;6.878;2023-09-19T01:28:55;14.70;99.90
15083;DHT22;7640;53.116;6.878;2023-09-19T01:31:46;14.60;99.90
15083;DHT22;7640;53.116;6.878;2023-09-19T01:34:26;14.70;99.90
15083;DHT22;7640;53.116;6.878;2023-09-19T01:37:04;14.60;99.90
15083;DHT22;7640;53.116;6.878;2023-09-19T01:39:34;14.60;99.90
15083;DHT22;7640;53.116;6.878;2023-09-19T01:42:12;14.60;99.90
15083;DHT22;7640;53.116;6.878;2023-09-19T01:44:57;14.60;99.90
15083;DHT22;7640;53.116;6.878;2023-09-19T01:47:41;14.50;99.90
15083;DHT22;7640;53.116;6.878;2023-09-19T01:50:26;14.50;99.90
15083;DHT22;7640;53.116;6.878;2023-09-19T01:53:10;14.50;99.90
15083;DHT22;7640;53.116;6.878;2023-09-19T01:55:48;14.40;99.90
15083;DHT22;7640;53.116;6.878;2023-09-19T01:58:27;14.40;99.90
15083;DHT22;7640;53.116;6.878;2023-09-19T02:01:05;14.40;99.90
15083;DHT22;7640;53.116;6.878;2023-09-19T02:03:40;14.40;99.90
15083;DHT22;7640;53.116;6.878;2023-09-19T02:06:18;14.40;99.90
15083;DHT22;7640;53.116;6.878;2023-09-19T02:08:54;14.40;99.90
15083;DHT22;7640;53.116;6.878;2023-09-19T02:11:26;14.30;99.90
15083;DHT22;7640;53.116;6.878;2023-09-19T02:13:58;14.30;99.90
15083;DHT22;7640;53.116;6.878;2023-09-19T02:16:37;14.30;99.90
15083;DHT22;7640;53.116;6.878;2023-09-19T02:19:11;14.30;99.90
15083;DHT22;7640;53.116;6.878;2023-09-19T02:21:42;14.30;99.90
15083;DHT22;7640;53.116;6.878;2023-09-19T02:24:13;14.30;99.90
15083;DHT22;7640;53.116;6.878;2023-09-19T02:26:47;14.30;99.90
15083;DHT22;7640;53.116;6.878;2023-09-19T02:29:18;14.30;99.90
15083;DHT22;7640;53.116;6.878;2023-09-19T02:31:49;14.30;99.90
15083;DHT22;7640;53.116;6.878;2023-09-19T02:34:20;14.30;99.90
15083;DHT22;7640;53.116;6.878;2023-09-19T02:36:50;14.30;99.90
15083;DHT22;7640;53.116;6.878;2023-09-19T02:39:30;14.20;99.90
15083;DHT22;7640;53.116;6.878;2023-09-19T02:42:03;14.20;99.90
15083;DHT22;7640;53.116;6.878;2023-09-19T02:44:37;14.20;99.90
15083;DHT22;7640;53.116;6.878;2023-09-19T02:47:07;14.20;99.90
15083;DHT22;7640;53.116;6.878;2023-09-19T02:49:41;14.20;99.90
15083;DHT22;7640;53.116;6.878;2023-09-19T02:52:12;14.20;99.90
15083;DHT22;7640;53.116;6.878;2023-09-19T02:54:43;14.20;99.90
15083;DHT22;7640;53.116;6.878;2023-09-19T02:57:15;14.20;99.90
15083;DHT22;7640;53.116;6.878;2023-09-19T02:59:47;14.20;99.90
15083;DHT22;7640;53.116;6.878;2023-09-19T03:02:17;14.20;99.90
15083;DHT22;7640;53.116;6.878;2023-09-19T03:04:48;14.20;99.90
15083;DHT22;7640;53.116;6.878;2023-09-19T03:07:24;14.20;99.90
15083;DHT22;7640;53.116;6.878;2023-09-19T03:09:56;14.20;99.90
15083;DHT22;7640;53.116;6.878;2023-09-19T03:12:26;14.20;99.90
15083;DHT22;7640;53.116;6.878;2023-09-19T03:14:57;14.20;99.90
15083;DHT22;7640;53.116;6.878;2023-09-19T03:17:34;14.20;99.90
15083;DHT22;7640;53.116;6.878;2023-09-19T03:20:10;14.20;99.90
15083;DHT22;7640;53.116;6.878;2023-09-19T03:22:48;14.20;99.90
15083;DHT22;7640;53.116;6.878;2023-09-19T03:25:21;14.30;99.90
15083;DHT22;7640;53.116;6.878;2023-09-19T03:27:52;14.30;99.90
15083;DHT22;7640;53.116;6.878;2023-09-19T03:30:23;14.30;99.90
15083;DHT22;7640;53.116;6.878;2023-09-19T03:32:55;14.30;99.90
15083;DHT22;7640;53.116;6.878;2023-09-19T03:35:30;14.30;99.90
15083;DHT22;7640;53.116;6.878;2023-09-19T03:38:01;14.30;99.90
15083;DHT22;7640;53.116;6.878;2023-09-19T03:40:36;14.30;99.90
15083;DHT22;7640;53.116;6.878;2023-09-19T03:43:07;14.30;99.90
15083;DHT22;7640;53.116;6.878;2023-09-19T03:45:38;14.30;99.90
15083;DHT22;7640;53.116;6.878;2023-09-19T03:48:10;14.30;99.90
15083;DHT22;7640;53.116;6.878;2023-09-19T03:50:42;14.30;99.90
15083;DHT22;7640;53.116;6.878;2023-09-19T03:53:13;14.30;99.90
15083;DHT22;7640;53.116;6.878;2023-09-19T03:55:45;14.30;99.90
15083;DHT22;7640;53.116;6.878;2023-09-19T03:58:17;14.30;99.90
15083;DHT22;7640;53.116;6.878;2023-09-19T04:00:50;14.30;99.90
15083;DHT22;7640;53.116;6.878;2023-09-19T04:03:23;14.30;99.90
15083;DHT22;7640;53.116;6.878;2023-09-19T04:06:05;14.30;99.90
15083;DHT22;7640;53.116;6.878;2023-09-19T04:08:37;14.20;99.90
15083;DHT22;7640;53.116;6.878;2023-09-19T04:11:10;14.30;99.90
15083;DHT22;7640;53.116;6.878;2023-09-19T04:13:43;14.30;99.90
15083;DHT22;7640;53.116;6.878;2023-09-19T04:16:20;14.30;99.90
15083;DHT22;7640;53.116;6.878;2023-09-19T04:18:50;14.30;99.90
15083;DHT22;7640;53.116;6.878;2023-09-19T04:21:23;14.40;99.90
15083;DHT22;7640;53.116;6.878;2023-09-19T04:23:56;14.40;99.90
15083;DHT22;7640;53.116;6.878;2023-09-19T04:26:27;14.40;99.90
15083;DHT22;7640;53.116;6.878;2023-09-19T04:28:57;14.40;99.90
15083;DHT22;7640;53.116;6.878;2023-09-19T04:31:29;14.40;99.90
15083;DHT22;7640;53.116;6.878;2023-09-19T04:34:01;14.40;99.90
15083;DHT22;7640;53.116;6.878;2023-09-19T04:36:34;14.40;99.90
15083;DHT22;7640;53.116;6.878;2023-09-19T04:39:05;14.50;99.90
15083;DHT22;7640;53.116;6.878;2023-09-19T04:41:36;14.50;99.90
15083;DHT22;7640;53.116;6.878;2023-09-19T04:44:10;14.50;99.90
15083;DHT22;7640;53.116;6.878;2023-09-19T04:46:41;14.60;99.90
15083;DHT22;7640;53.116;6.878;2023-09-19T04:49:14;14.60;99.90
15083;DHT22;7640;53.116;6.878;2023-09-19T04:51:47;14.60;99.90
15083;DHT22;7640;53.116;6.878;2023-09-19T04:54:17;14.60;99.90
15083;DHT22;7640;53.116;6.878;2023-09-19T04:56:52;14.70;99.90
15083;DHT22;7640;53.116;6.878;2023-09-19T04:59:21;14.70;99.90
15083;DHT22;7640;53.116;6.878;2023-09-19T05:01:51;14.70;99.90
15083;DHT22;7640;53.116;6.878;2023-09-19T05:04:21;14.70;99.90
15083;DHT22;7640;53.116;6.878;2023-09-19T05:06:53;14.70;99.90
15083;DHT22;7640;53.116;6.878;2023-09-19T05:09:26;14.70;99.90
15083;DHT22;7640;53.116;6.878;2023-09-19T05:11:55;14.70;99.90
15083;DHT22;7640;53.116;6.878;2023-09-19T05:14:26;14.70;99.90
15083;DHT22;7640;53.116;6.878;2023-09-19T05:16:56;14.70;99.90
15083;DHT22;7640;53.116;6.878;2023-09-19T05:19:27;14.70;99.90
15083;DHT22;7640;53.116;6.878;2023-09-19T05:21:59;14.70;99.90
15083;DHT22;7640;53.116;6.878;2023-09-19T05:24:33;14.60;99.90
15083;DHT22;7640;53.116;6.878;2023-09-19T05:27:05;14.60;99.90
15083;DHT22;7640;53.116;6.878;2023-09-19T05:29:37;14.60;99.90
15083;DHT22;7640;53.116;6.878;2023-09-19T05:32:15;14.60;99.90
15083;DHT22;7640;53.116;6.878;2023-09-19T05:34:47;14.60;99.90
15083;DHT22;7640;53.116;6.878;2023-09-19T05:37:23;14.60;99.90
15083;DHT22;7640;53.116;6.878;2023-09-19T05:39:56;14.60;99.90
15083;DHT22;7640;53.116;6.878;2023-09-19T05:42:30;14.60;99.90
15083;DHT22;7640;53.116;6.878;2023-09-19T05:45:05;14.60;99.90
15083;DHT22;7640;53.116;6.878;2023-09-19T05:47:39;14.60;99.90
15083;DHT22;7640;53.116;6.878;2023-09-19T05:50:13;14.70;99.90
15083;DHT22;7640;53.116;6.878;2023-09-19T05:52:54;14.70;99.90
15083;DHT22;7640;53.116;6.878;2023-09-19T05:55:29;14.70;99.90
15083;DHT22;7640;53.116;6.878;2023-09-19T05:58:08;14.70;99.90
15083;DHT22;7640;53.116;6.878;2023-09-19T06:00:42;14.70;99.90
15083;DHT22;7640;53.116;6.878;2023-09-19T06:03:15;14.80;99.90
15083;DHT22;7640;53.116;6.878;2023-09-19T06:05:46;14.80;99.90
15083;DHT22;7640;53.116;6.878;2023-09-19T06:08:20;14.80;99.90
15083;DHT22;7640;53.116;6.878;2023-09-19T06:10:50;14.80;99.90
15083;DHT22;7640;53.116;6.878;2023-09-19T06:13:22;14.90;99.90
15083;DHT22;7640;53.116;6.878;2023-09-19T06:15:57;14.90;99.90
15083;DHT22;7640;53.116;6.878;2023-09-19T06:18:32;14.90;99.90
15083;DHT22;7640;53.116;6.878;2023-09-19T06:21:03;14.90;99.90
15083;DHT22;7640;53.116;6.878;2023-09-19T06:23:38;14.90;99.90
15083;DHT22;7640;53.116;6.878;2023-09-19T06:26:13;15.00;99.90
15083;DHT22;7640;53.116;6.878;2023-09-19T06:28:48;15.00;99.90
15083;DHT22;7640;53.116;6.878;2023-09-19T06:31:20;15.00;99.90
15083;DHT22;7640;53.116;6.878;2023-09-19T06:33:54;15.00;99.90
15083;DHT22;7640;53.116;6.878;2023-09-19T06:36:25;15.00;99.90
15083;DHT22;7640;53.116;6.878;2023-09-19T06:38:58;15.00;99.90
15083;DHT22;7640;53.116;6.878;2023-09-19T06:41:34;15.10;99.90
15083;DHT22;7640;53.116;6.878;2023-09-19T06:44:07;15.10;99.90
15083;DHT22;7640;53.116;6.878;2023-09-19T06:46:39;15.10;99.90
15083;DHT22;7640;53.116;6.878;2023-09-19T06:49:13;15.20;99.90
15083;DHT22;7640;53.116;6.878;2023-09-19T06:51:46;15.20;99.90
15083;DHT22;7640;53.116;6.878;2023-09-19T06:54:21;15.20;99.90
15083;DHT22;7640;53.116;6.878;2023-09-19T06:57:08;15.20;99.90
15083;DHT22;7640;53.116;6.878;2023-09-19T06:59:41;15.20;99.90
15083;DHT22;7640;53.116;6.878;2023-09-19T07:02:20;15.20;99.90
15083;DHT22;7640;53.116;6.878;2023-09-19T07:04:51;15.30;99.90
15083;DHT22;7640;53.116;6.878;2023-09-19T07:07:25;15.30;99.90
15083;DHT22;7640;53.116;6.878;2023-09-19T07:09:59;15.30;99.90
15083;DHT22;7640;53.116;6.878;2023-09-19T07:12:30;15.40;99.90
15083;DHT22;7640;53.116;6.878;2023-09-19T07:15:03;15.50;99.90
15083;DHT22;7640;53.116;6.878;2023-09-19T07:17:36;15.60;99.90
15083;DHT22;7640;53.116;6.878;2023-09-19T07:20:09;15.60;99.90
15083;DHT22;7640;53.116;6.878;2023-09-19T07:22:50;15.70;99.90
15083;DHT22;7640;53.116;6.878;2023-09-19T07:25:26;15.70;99.90
15083;DHT22;7640;53.116;6.878;2023-09-19T07:27:59;15.80;99.90
15083;DHT22;7640;53.116;6.878;2023-09-19T07:30:37;15.90;99.90
15083;DHT22;7640;53.116;6.878;2023-09-19T07:33:08;16.00;99.90
15083;DHT22;7640;53.116;6.878;2023-09-19T07:35:45;16.00;99.90
15083;DHT22;7640;53.116;6.878;2023-09-19T07:38:16;16.00;99.90
15083;DHT22;7640;53.116;6.878;2023-09-19T07:40:51;16.10;99.90
15083;DHT22;7640;53.116;6.878;2023-09-19T07:43:23;16.20;99.90
15083;DHT22;7640;53.116;6.878;2023-09-19T07:45:53;16.20;99.90
15083;DHT22;7640;53.116;6.878;2023-09-19T07:48:23;16.10;99.90
15083;DHT22;7640;53.116;6.878;2023-09-19T07:50:53;16.10;99.90
15083;DHT22;7640;53.116;6.878;2023-09-19T07:53:24;16.20;99.90
15083;DHT22;7640;53.116;6.878;2023-09-19T07:56:02;16.20;99.90
15083;DHT22;7640;53.116;6.878;2023-09-19T07:58:39;16.30;99.90
15083;DHT22;7640;53.116;6.878;2023-09-19T08:01:11;16.40;99.90
15083;DHT22;7640;53.116;6.878;2023-09-19T08:03:44;16.40;99.90
15083;DHT22;7640;53.116;6.878;2023-09-19T08:06:16;16.50;99.90
15083;DHT22;7640;53.116;6.878;2023-09-19T08:08:46;16.60;99.90
15083;DHT22;7640;53.116;6.878;2023-09-19T08:11:18;16.60;99.90
15083;DHT22;7640;53.116;6.878;2023-09-19T08:13:49;16.60;99.90
15083;DHT22;7640;53.116;6.878;2023-09-19T08:16:27;16.60;99.90
15083;DHT22;7640;53.116;6.878;2023-09-19T08:18:57;16.50;99.90
15083;DHT22;7640;53.116;6.878;2023-09-19T08:21:28;16.50;99.90
15083;DHT22;7640;53.116;6.878;2023-09-19T08:24:01;16.50;99.90
15083;DHT22;7640;53.116;6.878;2023-09-19T08:26:39;16.50;99.90
15083;DHT22;7640;53.116;6.878;2023-09-19T08:29:12;16.60;99.90
15083;DHT22;7640;53.116;6.878;2023-09-19T08:31:43;16.70;99.90
15083;DHT22;7640;53.116;6.878;2023-09-19T08:34:15;16.80;99.90
15083;DHT22;7640;53.116;6.878;2023-09-19T08:36:45;16.80;99.90
15083;DHT22;7640;53.116;6.878;2023-09-19T08:39:18;16.90;99.90
15083;DHT22;7640;53.116;6.878;2023-09-19T08:41:59;17.00;99.90
15083;DHT22;7640;53.116;6.878;2023-09-19T08:44:37;17.10;99.90
15083;DHT22;7640;53.116;6.878;2023-09-19T08:47:10;17.10;99.90
15083;DHT22;7640;53.116;6.878;2023-09-19T08:49:49;17.20;99.90
15083;DHT22;7640;53.116;6.878;2023-09-19T08:52:28;17.30;99.90
15083;DHT22;7640;53.116;6.878;2023-09-19T08:55:03;17.30;99.90
15083;DHT22;7640;53.116;6.878;2023-09-19T08:57:40;17.40;99.90
15083;DHT22;7640;53.116;6.878;2023-09-19T09:00:12;17.40;99.90
15083;DHT22;7640;53.116;6.878;2023-09-19T09:02:45;17.50;99.90
15083;DHT22;7640;53.116;6.878;2023-09-19T09:05:18;17.60;99.90
15083;DHT22;7640;53.116;6.878;2023-09-19T09:07:52;17.60;99.90
15083;DHT22;7640;53.116;6.878;2023-09-19T09:10:24;17.70;99.90
15083;DHT22;7640;53.116;6.878;2023-09-19T09:12:58;17.70;99.90
15083;DHT22;7640;53.116;6.878;2023-09-19T09:15:30;17.80;99.90
15083;DHT22;7640;53.116;6.878;2023-09-19T09:18:03;17.80;99.90
15083;DHT22;7640;53.116;6.878;2023-09-19T09:20:33;17.80;99.90
15083;DHT22;7640;53.116;6.878;2023-09-19T09:23:04;17.90;99.90
15083;DHT22;7640;53.116;6.878;2023-09-19T09:25:49;18.00;99.90
15083;DHT22;7640;53.116;6.878;2023-09-19T09:28:26;18.10;99.90
15083;DHT22;7640;53.116;6.878;2023-09-19T09:30:57;18.20;99.90
15083;DHT22;7640;53.116;6.878;2023-09-19T09:33:29;18.30;99.90
15083;DHT22;7640;53.116;6.878;2023-09-19T09:36:01;18.40;99.90
15083;DHT22;7640;53.116;6.878;2023-09-19T09:38:44;18.50;99.90
15083;DHT22;7640;53.116;6.878;2023-09-19T09:41:17;18.50;99.90
15083;DHT22;7640;53.116;6.878;2023-09-19T09:43:56;18.60;99.90
15083;DHT22;7640;53.116;6.878;2023-09-19T09:46:26;18.70;99.90
15083;DHT22;7640;53.116;6.878;2023-09-19T09:49:13;18.80;99.90
15083;DHT22;7640;53.116;6.878;2023-09-19T09:52:01;18.90;99.90
15083;DHT22;7640;53.116;6.878;2023-09-19T09:54:37;19.10;99.90
15083;DHT22;7640;53.116;6.878;2023-09-19T09:57:11;19.30;99.90
15083;DHT22;7640;53.116;6.878;2023-09-19T09:59:50;19.50;99.90
15083;DHT22;7640;53.116;6.878;2023-09-19T10:02:24;19.60;99.90
15083;DHT22;7640;53.116;6.878;2023-09-19T10:05:12;19.60;99.90
15083;DHT22;7640;53.116;6.878;2023-09-19T10:07:51;19.60;99.90
15083;DHT22;7640;53.116;6.878;2023-09-19T10:10:36;19.60;99.90
15083;DHT22;7640;53.116;6.878;2023-09-19T10:13:24;19.50;99.90
15083;DHT22;7640;53.116;6.878;2023-09-19T10:16:06;19.40;99.90
15083;DHT22;7640;53.116;6.878;2023-09-19T10:18:42;19.50;99.90
15083;DHT22;7640;53.116;6.878;2023-09-19T10:21:14;19.40;99.90
15083;DHT22;7640;53.116;6.878;2023-09-19T10:23:50;19.40;99.90
15083;DHT22;7640;53.116;6.878;2023-09-19T10:26:26;19.40;99.90
15083;DHT22;7640;53.116;6.878;2023-09-19T10:29:07;19.40;99.90
15083;DHT22;7640;53.116;6.878;2023-09-19T10:31:40;19.40;99.90
15083;DHT22;7640;53.116;6.878;2023-09-19T10:34:17;19.30;99.90
15083;DHT22;7640;53.116;6.878;2023-09-19T10:36:47;19.40;99.90
15083;DHT22;7640;53.116;6.878;2023-09-19T10:39:19;19.50;99.90
15083;DHT22;7640;53.116;6.878;2023-09-19T10:41:51;19.60;99.90
15083;DHT22;7640;53.116;6.878;2023-09-19T10:44:28;19.70;99.90
15083;DHT22;7640;53.116;6.878;2023-09-19T10:47:05;19.80;99.90
15083;DHT22;7640;53.116;6.878;2023-09-19T10:49:37;19.90;99.90
15083;DHT22;7640;53.116;6.878;2023-09-19T10:52:19;19.80;99.90
15083;DHT22;7640;53.116;6.878;2023-09-19T10:54:51;19.80;99.90
15083;DHT22;7640;53.116;6.878;2023-09-19T10:57:36;19.80;99.90
15083;DHT22;7640;53.116;6.878;2023-09-19T11:00:12;19.90;99.90
15083;DHT22;7640;53.116;6.878;2023-09-19T11:03:18;20.10;99.90
15083;DHT22;7640;53.116;6.878;2023-09-19T11:06:11;20.20;99.90
15083;DHT22;7640;53.116;6.878;2023-09-19T11:08:55;20.20;99.90
15083;DHT22;7640;53.116;6.878;2023-09-19T11:11:46;20.20;99.90
15083;DHT22;7640;53.116;6.878;2023-09-19T11:14:44;20.20;99.90
15083;DHT22;7640;53.116;6.878;2023-09-19T11:17:41;20.20;99.90
15083;DHT22;7640;53.116;6.878;2023-09-19T11:20:24;20.20;99.90
15083;DHT22;7640;53.116;6.878;2023-09-19T11:23:23;20.30;99.90
15083;DHT22;7640;53.116;6.878;2023-09-19T11:25:55;20.40;99.90
15083;DHT22;7640;53.116;6.878;2023-09-19T11:28:32;20.40;99.90
15083;DHT22;7640;53.116;6.878;2023-09-19T11:31:41;20.40;99.90
15083;DHT22;7640;53.116;6.878;2023-09-19T11:34:43;20.40;99.90
15083;DHT22;7640;53.116;6.878;2023-09-19T11:40:47;20.60;99.90
15083;DHT22;7640;53.116;6.878;2023-09-19T11:43:30;20.70;99.90
15083;DHT22;7640;53.116;6.878;2023-09-19T11:46:07;20.70;99.90
15083;DHT22;7640;53.116;6.878;2023-09-19T11:48:39;20.80;99.90
15083;DHT22;7640;53.116;6.878;2023-09-19T11:51:17;20.80;99.90
15083;DHT22;7640;53.116;6.878;2023-09-19T11:54:05;20.80;99.90
15083;DHT22;7640;53.116;6.878;2023-09-19T11:56:43;20.70;99.90
15083;DHT22;7640;53.116;6.878;2023-09-19T11:59:20;20.60;99.90
15083;DHT22;7640;53.116;6.878;2023-09-19T12:01:53;20.60;99.90
15083;DHT22;7640;53.116;6.878;2023-09-19T12:04:38;20.60;99.90
15083;DHT22;7640;53.116;6.878;2023-09-19T12:07:12;20.70;99.90
15083;DHT22;7640;53.116;6.878;2023-09-19T12:10:06;20.70;99.90
15083;DHT22;7640;53.116;6.878;2023-09-19T12:12:39;20.70;99.90
15083;DHT22;7640;53.116;6.878;2023-09-19T12:15:10;20.60;99.90
15083;DHT22;7640;53.116;6.878;2023-09-19T12:17:44;20.50;99.90
15083;DHT22;7640;53.116;6.878;2023-09-19T12:20:15;20.50;99.90
15083;DHT22;7640;53.116;6.878;2023-09-19T12:22:47;20.40;99.90
15083;DHT22;7640;53.116;6.878;2023-09-19T12:25:20;20.30;99.90
15083;DHT22;7640;53.116;6.878;2023-09-19T12:27:52;20.30;99.90
15083;DHT22;7640;53.116;6.878;2023-09-19T12:30:28;20.30;99.90
15083;DHT22;7640;53.116;6.878;2023-09-19T12:33:03;20.30;99.90
15083;DHT22;7640;53.116;6.878;2023-09-19T12:35:35;20.30;99.90
15083;DHT22;7640;53.116;6.878;2023-09-19T12:38:06;20.20;99.90
15083;DHT22;7640;53.116;6.878;2023-09-19T12:40:39;20.10;99.90
15083;DHT22;7640;53.116;6.878;2023-09-19T12:43:10;20.10;99.90
15083;DHT22;7640;53.116;6.878;2023-09-19T12:45:42;20.00;99.90
15083;DHT22;7640;53.116;6.878;2023-09-19T12:48:20;20.00;99.90
15083;DHT22;7640;53.116;6.878;2023-09-19T12:51:03;19.80;99.90
15083;DHT22;7640;53.116;6.878;2023-09-19T12:53:38;19.90;99.90
15083;DHT22;7640;53.116;6.878;2023-09-19T12:56:14;20.00;99.90
15083;DHT22;7640;53.116;6.878;2023-09-19T12:58:49;20.10;99.90
15083;DHT22;7640;53.116;6.878;2023-09-19T13:01:23;20.10;99.90
15083;DHT22;7640;53.116;6.878;2023-09-19T13:04:16;20.20;99.90
15083;DHT22;7640;53.116;6.878;2023-09-19T13:06:53;20.20;99.90
15083;DHT22;7640;53.116;6.878;2023-09-19T13:09:29;20.30;99.90
15083;DHT22;7640;53.116;6.878;2023-09-19T13:12:36;20.30;99.90
15083;DHT22;7640;53.116;6.878;2023-09-19T13:15:11;20.20;99.90
15083;DHT22;7640;53.116;6.878;2023-09-19T13:17:48;20.10;99.90
15083;DHT22;7640;53.116;6.878;2023-09-19T13:20:22;20.00;99.90
15083;DHT22;7640;53.116;6.878;2023-09-19T13:23:26;19.90;99.90
15083;DHT22;7640;53.116;6.878;2023-09-19T13:25:57;19.90;99.90
15083;DHT22;7640;53.116;6.878;2023-09-19T13:28:29;19.80;99.90
15083;DHT22;7640;53.116;6.878;2023-09-19T13:30:59;19.80;99.90
15083;DHT22;7640;53.116;6.878;2023-09-19T13:33:34;19.80;99.90
15083;DHT22;7640;53.116;6.878;2023-09-19T13:36:07;19.80;99.90
15083;DHT22;7640;53.116;6.878;2023-09-19T13:38:38;19.80;99.90
15083;DHT22;7640;53.116;6.878;2023-09-19T13:41:16;19.80;99.90
15083;DHT22;7640;53.116;6.878;2023-09-19T13:43:52;19.70;99.90
15083;DHT22;7640;53.116;6.878;2023-09-19T13:46:24;19.70;99.90
15083;DHT22;7640;53.116;6.878;2023-09-19T13:49:02;19.60;99.90
15083;DHT22;7640;53.116;6.878;2023-09-19T13:51:36;19.60;99.90
15083;DHT22;7640;53.116;6.878;2023-09-19T13:54:07;19.60;99.90
15083;DHT22;7640;53.116;6.878;2023-09-19T13:56:39;19.60;99.90
15083;DHT22;7640;53.116;6.878;2023-09-19T13:59:11;19.60;99.90
15083;DHT22;7640;53.116;6.878;2023-09-19T14:01:40;19.70;99.90
15083;DHT22;7640;53.116;6.878;2023-09-19T14:04:11;19.70;99.90
15083;DHT22;7640;53.116;6.878;2023-09-19T14:06:42;19.60;99.90
15083;DHT22;7640;53.116;6.878;2023-09-19T14:09:13;19.60;99.90
15083;DHT22;7640;53.116;6.878;2023-09-19T14:11:49;19.50;99.90
15083;DHT22;7640;53.116;6.878;2023-09-19T14:14:21;19.50;99.90
15083;DHT22;7640;53.116;6.878;2023-09-19T14:16:52;19.50;99.90
15083;DHT22;7640;53.116;6.878;2023-09-19T14:19:22;19.50;99.90
15083;DHT22;7640;53.116;6.878;2023-09-19T14:21:52;19.60;99.90
15083;DHT22;7640;53.116;6.878;2023-09-19T14:24:24;19.60;99.90
15083;DHT22;7640;53.116;6.878;2023-09-19T14:26:54;19.70;99.90
15083;DHT22;7640;53.116;6.878;2023-09-19T14:29:38;19.70;99.90
15083;DHT22;7640;53.116;6.878;2023-09-19T14:32:10;19.80;99.90
15083;DHT22;7640;53.116;6.878;2023-09-19T14:34:42;19.80;99.90
15083;DHT22;7640;53.116;6.878;2023-09-19T14:37:13;19.80;99.90
15083;DHT22;7640;53.116;6.878;2023-09-19T14:39:45;19.80;99.90
15083;DHT22;7640;53.116;6.878;2023-09-19T14:42:16;19.80;99.90
15083;DHT22;7640;53.116;6.878;2023-09-19T14:44:48;19.80;99.90
15083;DHT22;7640;53.116;6.878;2023-09-19T14:47:18;19.90;99.90
15083;DHT22;7640;53.116;6.878;2023-09-19T14:49:50;19.90;99.90
15083;DHT22;7640;53.116;6.878;2023-09-19T14:52:22;19.90;99.90
15083;DHT22;7640;53.116;6.878;2023-09-19T14:54:51;19.90;99.90
15083;DHT22;7640;53.116;6.878;2023-09-19T14:57:26;19.90;99.90
15083;DHT22;7640;53.116;6.878;2023-09-19T14:59:59;19.80;99.90
15083;DHT22;7640;53.116;6.878;2023-09-19T15:02:36;19.80;99.90
15083;DHT22;7640;53.116;6.878;2023-09-19T15:05:07;19.80;99.90
15083;DHT22;7640;53.116;6.878;2023-09-19T15:07:37;19.80;99.90
15083;DHT22;7640;53.116;6.878;2023-09-19T15:10:09;19.80;99.90
15083;DHT22;7640;53.116;6.878;2023-09-19T15:12:41;19.80;99.90
15083;DHT22;7640;53.116;6.878;2023-09-19T15:15:12;19.80;99.90
15083;DHT22;7640;53.116;6.878;2023-09-19T15:17:44;19.80;99.90
15083;DHT22;7640;53.116;6.878;2023-09-19T15:20:15;19.70;99.90
15083;DHT22;7640;53.116;6.878;2023-09-19T15:22:47;19.70;99.90
15083;DHT22;7640;53.116;6.878;2023-09-19T15:25:17;19.70;99.90
15083;DHT22;7640;53.116;6.878;2023-09-19T15:27:47;19.70;99.90
15083;DHT22;7640;53.116;6.878;2023-09-19T15:30:22;19.70;99.90
15083;DHT22;7640;53.116;6.878;2023-09-19T15:32:54;19.70;99.90
15083;DHT22;7640;53.116;6.878;2023-09-19T15:35:27;19.70;99.90
15083;DHT22;7640;53.116;6.878;2023-09-19T15:37:57;19.60;99.90
15083;DHT22;7640;53.116;6.878;2023-09-19T15:40:30;19.40;99.90
15083;DHT22;7640;53.116;6.878;2023-09-19T15:43:00;19.30;99.90
15083;DHT22;7640;53.116;6.878;2023-09-19T15:45:40;19.20;99.90
15083;DHT22;7640;53.116;6.878;2023-09-19T15:48:13;19.10;99.90
15083;DHT22;7640;53.116;6.878;2023-09-19T15:50:45;19.10;99.90
15083;DHT22;7640;53.116;6.878;2023-09-19T15:53:16;19.10;99.90
15083;DHT22;7640;53.116;6.878;2023-09-19T15:55:47;19.00;99.90
15083;DHT22;7640;53.116;6.878;2023-09-19T15:58:16;19.10;99.90
15083;DHT22;7640;53.116;6.878;2023-09-19T16:00:48;19.00;99.90
15083;DHT22;7640;53.116;6.878;2023-09-19T16:03:20;19.00;99.90
15083;DHT22;7640;53.116;6.878;2023-09-19T16:05:53;19.00;99.90
15083;DHT22;7640;53.116;6.878;2023-09-19T16:08:24;19.00;99.90
15083;DHT22;7640;53.116;6.878;2023-09-19T16:10:55;19.00;99.90
15083;DHT22;7640;53.116;6.878;2023-09-19T16:13:25;19.10;99.90
15083;DHT22;7640;53.116;6.878;2023-09-19T16:15:58;19.10;99.90
15083;DHT22;7640;53.116;6.878;2023-09-19T16:18:30;19.10;99.90
15083;DHT22;7640;53.116;6.878;2023-09-19T16:21:03;19.10;99.90
15083;DHT22;7640;53.116;6.878;2023-09-19T16:23:39;19.10;99.90
15083;DHT22;7640;53.116;6.878;2023-09-19T16:26:11;19.10;99.90
15083;DHT22;7640;53.116;6.878;2023-09-19T16:28:45;19.10;99.90
15083;DHT22;7640;53.116;6.878;2023-09-19T16:31:22;19.10;99.90
15083;DHT22;7640;53.116;6.878;2023-09-19T16:33:58;19.10;99.90
15083;DHT22;7640;53.116;6.878;2023-09-19T16:36:29;19.10;99.90